Time;durP1;ratioP1;P1;durP2;ratioP2;P2;SDS_P1;SDS_P2;PMS_P1;PMS_P2;Temp;Humidity;BMP_temperature;BMP_pressure;BME280_temperature;BME280_humidity;BME280_pressure;Samples;Min_cycle;Max_cycle;Signal;HPM_P1;HPM_P2
2021/07/17 00:01:39;;;;;;;20.08;7.07;;;17.30;99.90;;;;;;4898422;29;20047;-87
2021/07/17 00:04:05;;;;;;;12.45;5.75;;;17.30;99.90;;;;;;4898650;29;20075;-87
2021/07/17 00:06:32;;;;;;;14.25;5.80;;;17.20;99.90;;;;;;4898445;29;20032;-87
2021/07/17 00:08:58;;;;;;;12.25;5.82;;;17.30;99.90;;;;;;4914004;29;20096;-87
2021/07/17 00:11:24;;;;;;;10.15;4.93;;;17.30;99.90;;;;;;4898396;29;20036;-87
2021/07/17 00:13:50;;;;;;;11.32;5.28;;;17.30;99.90;;;;;;4898398;29;20028;-86
2021/07/17 00:16:26;;;;;;;16.63;5.63;;;17.30;99.90;;;;;;4927158;29;20039;-86
2021/07/17 00:18:53;;;;;;;16.75;5.93;;;17.20;99.90;;;;;;4932583;29;20043;-87
2021/07/17 00:21:19;;;;;;;14.85;4.90;;;17.20;99.90;;;;;;4949836;29;20032;-87
2021/07/17 00:23:44;;;;;;;10.77;4.13;;;17.20;99.90;;;;;;4916923;29;20095;-86
2021/07/17 00:26:10;;;;;;;9.77;4.85;;;17.20;99.90;;;;;;4933017;29;20240;-86
2021/07/17 00:28:36;;;;;;;16.40;7.05;;;17.20;99.90;;;;;;4916956;29;20032;-86
2021/07/17 00:31:01;;;;;;;19.15;7.95;;;17.20;99.90;;;;;;4916856;29;20036;-86
2021/07/17 00:33:27;;;;;;;20.48;7.82;;;17.10;99.90;;;;;;4932869;29;20047;-85
2021/07/17 00:35:53;;;;;;;20.63;6.30;;;17.10;99.90;;;;;;4916717;29;20060;-87
2021/07/17 00:38:18;;;;;;;19.15;6.00;;;17.10;99.90;;;;;;4932913;29;20091;-86
2021/07/17 00:40:44;;;;;;;21.23;6.65;;;17.10;99.90;;;;;;4932328;29;20040;-83
2021/07/17 00:43:10;;;;;;;18.67;7.18;;;17.10;99.90;;;;;;4932279;29;20040;-86
2021/07/17 00:49:29;;;;;;;20.58;7.68;;;17.10;99.90;;;;;;4850530;29;20106;-87
2021/07/17 00:51:55;;;;;;;22.85;7.55;;;17.10;99.90;;;;;;4835358;29;20050;-86
2021/07/17 00:54:24;;;;;;;17.58;6.00;;;17.10;99.90;;;;;;4834996;29;20424;-86
2021/07/17 00:56:52;;;;;;;16.58;6.28;;;17.10;99.90;;;;;;4834930;29;20038;-86
2021/07/17 00:59:21;;;;;;;19.23;6.55;;;17.10;99.90;;;;;;4834422;29;20046;-87
2021/07/17 01:01:50;;;;;;;20.85;6.95;;;17.00;99.90;;;;;;4834917;29;20072;-86
2021/07/17 01:04:16;;;;;;;21.10;6.90;;;17.00;99.90;;;;;;4819601;29;20046;-85
2021/07/17 01:06:42;;;;;;;17.48;7.13;;;17.00;99.90;;;;;;4834965;29;20530;-86
2021/07/17 01:09:08;;;;;;;20.27;7.05;;;17.00;99.90;;;;;;4819430;29;20408;-86
2021/07/17 01:11:34;;;;;;;18.73;7.75;;;17.00;99.90;;;;;;4819269;29;20087;-86
2021/07/17 01:14:00;;;;;;;17.63;6.72;;;17.00;99.90;;;;;;4819254;29;20030;-85
2021/07/17 01:16:26;;;;;;;19.67;6.78;;;17.00;99.90;;;;;;4834072;29;20038;-86
2021/07/17 01:18:52;;;;;;;16.20;6.43;;;17.00;99.90;;;;;;4834612;29;20046;-85
2021/07/17 01:21:19;;;;;;;14.90;5.60;;;17.00;99.90;;;;;;4834514;29;20031;-86
2021/07/17 01:23:46;;;;;;;15.10;6.93;;;16.90;99.90;;;;;;4834530;29;20079;-86
2021/07/17 01:26:13;;;;;;;16.45;6.18;;;16.90;99.90;;;;;;4894870;29;20081;-87
2021/07/17 01:28:39;;;;;;;21.58;7.13;;;16.90;99.90;;;;;;4927953;29;20032;-85
2021/07/17 01:31:06;;;;;;;18.52;7.20;;;16.90;99.90;;;;;;4912499;29;20111;-85
2021/07/17 01:33:32;;;;;;;23.23;7.03;;;16.90;99.90;;;;;;4912122;29;20047;-85
2021/07/17 01:35:59;;;;;;;18.23;6.03;;;16.90;99.90;;;;;;4928096;29;20036;-87
2021/07/17 01:38:25;;;;;;;17.10;6.93;;;16.80;99.90;;;;;;4912503;29;20039;-85
2021/07/17 01:40:51;;;;;;;13.70;5.57;;;16.80;99.90;;;;;;4928146;29;20467;-85
2021/07/17 01:43:16;;;;;;;13.70;5.82;;;16.80;99.90;;;;;;4928881;29;20071;-85
2021/07/17 01:45:42;;;;;;;21.25;7.03;;;16.80;99.90;;;;;;4928044;29;20120;-85
2021/07/17 01:48:10;;;;;;;23.40;7.22;;;16.70;99.90;;;;;;4927870;29;20052;-86
2021/07/17 01:50:36;;;;;;;18.83;7.70;;;16.70;99.90;;;;;;4940246;29;20052;-86
2021/07/17 01:53:04;;;;;;;17.85;6.22;;;16.60;99.90;;;;;;4943576;29;20043;-86
2021/07/17 01:55:29;;;;;;;16.17;6.57;;;16.60;99.90;;;;;;4944566;29;20033;-85
2021/07/17 01:57:55;;;;;;;16.30;6.13;;;16.60;99.90;;;;;;4946953;29;20042;-85
2021/07/17 02:00:22;;;;;;;17.63;6.80;;;16.60;99.90;;;;;;4946834;29;20039;-86
2021/07/17 02:02:48;;;;;;;13.43;6.03;;;16.60;99.90;;;;;;4946939;29;20036;-86
2021/07/17 02:05:15;;;;;;;15.32;4.97;;;16.60;99.90;;;;;;4947008;29;20047;-87
2021/07/17 02:07:41;;;;;;;14.88;5.60;;;16.60;99.90;;;;;;4946892;29;20059;-85
2021/07/17 02:10:13;;;;;;;17.25;6.55;;;16.60;99.90;;;;;;4946820;29;20036;-86
2021/07/17 02:12:54;;;;;;;17.52;6.38;;;16.60;99.90;;;;;;4946889;29;20042;-87
2021/07/17 02:15:19;;;;;;;9.98;4.75;;;16.60;99.90;;;;;;4946742;29;20042;-85
2021/07/17 02:17:47;;;;;;;15.88;5.90;;;16.50;99.90;;;;;;4946662;29;20031;-85
2021/07/17 02:20:13;;;;;;;17.65;4.97;;;16.50;99.90;;;;;;4946875;29;20035;-86
2021/07/17 02:22:39;;;;;;;12.77;5.68;;;16.50;99.90;;;;;;4946590;29;20032;-86
2021/07/17 02:25:05;;;;;;;17.25;5.53;;;16.50;99.90;;;;;;4946870;29;20044;-86
2021/07/17 02:27:31;;;;;;;22.65;7.15;;;16.50;99.90;;;;;;4946880;29;20036;-87
2021/07/17 02:29:57;;;;;;;20.40;7.22;;;16.50;99.90;;;;;;4947687;29;20031;-87
2021/07/17 02:32:23;;;;;;;15.52;6.38;;;16.50;99.90;;;;;;4930729;29;20503;-87
2021/07/17 02:34:49;;;;;;;17.58;6.25;;;16.50;99.90;;;;;;4946785;29;20099;-86
2021/07/17 02:37:14;;;;;;;17.10;5.57;;;16.50;99.90;;;;;;4946633;29;20036;-86
2021/07/17 02:39:41;;;;;;;15.63;5.55;;;16.50;99.90;;;;;;4946726;29;20068;-85
2021/07/17 02:42:07;;;;;;;19.08;6.10;;;16.50;99.90;;;;;;4931934;29;20031;-86
2021/07/17 02:44:32;;;;;;;18.15;6.15;;;16.40;99.90;;;;;;4949902;29;20526;-85
2021/07/17 02:46:58;;;;;;;17.45;5.90;;;16.40;99.90;;;;;;4983670;23;20018;-85
2021/07/17 02:49:23;;;;;;;16.70;5.18;;;16.40;99.90;;;;;;4893381;29;20049;-85
2021/07/17 02:51:50;;;;;;;17.02;6.53;;;16.30;99.90;;;;;;4893543;29;20041;-86
2021/07/17 02:54:16;;;;;;;16.30;5.30;;;16.30;99.90;;;;;;4896529;29;20043;-85
2021/07/17 02:56:42;;;;;;;14.63;4.93;;;16.30;99.90;;;;;;4912228;29;20036;-84
2021/07/17 02:59:08;;;;;;;10.77;4.45;;;16.20;99.90;;;;;;4912117;29;20038;-85
2021/07/17 03:01:34;;;;;;;21.88;6.47;;;16.20;99.90;;;;;;4913124;29;20097;-86
2021/07/17 03:04:00;;;;;;;22.42;6.03;;;16.10;99.90;;;;;;4896402;29;20048;-84
2021/07/17 03:06:25;;;;;;;17.25;6.68;;;16.10;99.90;;;;;;4896444;29;20119;-85
2021/07/17 03:08:51;;;;;;;19.38;6.65;;;16.10;99.90;;;;;;4912952;29;20036;-85
2021/07/17 03:11:16;;;;;;;14.38;5.32;;;16.10;99.90;;;;;;4912007;29;20044;-85
2021/07/17 03:13:42;;;;;;;14.18;5.78;;;16.10;99.90;;;;;;4912009;29;20033;-85
2021/07/17 03:16:08;;;;;;;20.98;7.18;;;16.10;99.90;;;;;;4924000;29;20036;-85
2021/07/17 03:18:33;;;;;;;22.60;7.70;;;16.10;99.90;;;;;;4930549;29;20084;-85
2021/07/17 03:20:59;;;;;;;17.10;6.25;;;16.10;99.90;;;;;;4930572;29;20495;-84
2021/07/17 03:23:24;;;;;;;23.48;7.22;;;16.20;99.90;;;;;;4930203;29;20040;-84
2021/07/17 03:25:51;;;;;;;20.23;7.03;;;16.10;99.90;;;;;;4930364;29;20040;-85
2021/07/17 03:28:17;;;;;;;13.93;6.55;;;16.10;99.90;;;;;;4914644;29;20043;-85
2021/07/17 03:30:42;;;;;;;21.75;7.68;;;16.20;99.90;;;;;;4930215;29;20032;-86
2021/07/17 03:33:08;;;;;;;21.42;8.13;;;16.10;99.90;;;;;;4930295;29;20033;-85
2021/07/17 03:35:34;;;;;;;25.73;9.48;;;16.10;99.90;;;;;;4930348;29;20032;-85
2021/07/17 03:37:59;;;;;;;18.08;6.78;;;16.10;99.90;;;;;;4929998;29;20501;-85
2021/07/17 03:40:25;;;;;;;18.08;7.07;;;16.10;99.90;;;;;;4930137;29;20032;-84
2021/07/17 03:42:51;;;;;;;19.30;7.75;;;16.10;99.90;;;;;;4914098;29;20036;-84
2021/07/17 03:45:17;;;;;;;15.73;6.53;;;16.10;99.90;;;;;;4929920;29;19922;-84
2021/07/17 03:47:42;;;;;;;15.80;6.25;;;16.10;99.90;;;;;;4930882;29;20036;-85
2021/07/17 03:50:08;;;;;;;18.58;7.15;;;16.10;99.90;;;;;;4930891;29;20036;-84
2021/07/17 03:52:34;;;;;;;16.88;7.13;;;16.00;99.90;;;;;;4920474;29;20056;-84
2021/07/17 03:55:00;;;;;;;15.70;6.72;;;16.10;99.90;;;;;;4909837;29;20040;-84
2021/07/17 03:57:25;;;;;;;14.27;5.72;;;16.10;99.90;;;;;;4895429;29;20051;-83
2021/07/17 03:59:54;;;;;;;19.75;6.15;;;16.00;99.90;;;;;;4894710;29;20036;-84
2021/07/17 04:02:22;;;;;;;22.55;6.13;;;16.00;99.90;;;;;;4894630;29;20032;-83
2021/07/17 04:04:49;;;;;;;12.13;4.22;;;16.00;99.90;;;;;;4909769;29;20045;-84
2021/07/17 04:07:16;;;;;;;18.52;5.18;;;16.00;99.90;;;;;;4911171;29;20104;-85
2021/07/17 04:09:41;;;;;;;14.43;5.53;;;16.00;99.90;;;;;;4911251;29;20040;-85
2021/07/17 04:12:07;;;;;;;25.25;6.78;;;16.00;99.90;;;;;;4894411;29;20389;-83
2021/07/17 04:14:33;;;;;;;14.48;5.28;;;16.00;99.90;;;;;;4894103;29;20064;-82
2021/07/17 04:16:58;;;;;;;18.67;6.25;;;16.00;99.90;;;;;;4928460;29;20028;-83
2021/07/17 04:19:25;;;;;;;20.60;5.97;;;15.90;99.90;;;;;;4928724;29;20036;-85
2021/07/17 04:21:50;;;;;;;16.65;6.18;;;15.90;99.90;;;;;;4928530;29;20068;-83
2021/07/17 04:24:16;;;;;;;16.02;5.30;;;15.90;99.90;;;;;;4928375;29;20404;-83
2021/07/17 04:26:41;;;;;;;8.63;3.70;;;15.90;99.90;;;;;;4928501;29;20035;-82
2021/07/17 04:29:07;;;;;;;11.25;4.63;;;15.90;99.90;;;;;;4928229;29;20044;-83
2021/07/17 04:31:34;;;;;;;13.45;4.60;;;15.90;99.90;;;;;;4928293;29;20100;-83
2021/07/17 04:34:00;;;;;;;10.73;4.68;;;15.90;99.90;;;;;;4928110;29;20071;-83
2021/07/17 04:36:25;;;;;;;10.25;3.42;;;15.80;99.90;;;;;;4928126;29;20032;-83
2021/07/17 04:38:52;;;;;;;13.90;4.53;;;15.80;99.90;;;;;;4928093;29;20036;-82
2021/07/17 04:41:18;;;;;;;17.60;5.50;;;15.90;99.90;;;;;;4925960;29;20035;-82
2021/07/17 04:43:43;;;;;;;13.95;5.18;;;15.80;99.90;;;;;;4892547;29;20036;-82
2021/07/17 04:46:09;;;;;;;16.13;5.43;;;15.90;99.90;;;;;;4893220;29;20084;-83
2021/07/17 04:48:37;;;;;;;12.23;4.40;;;15.90;99.90;;;;;;4908574;29;20048;-83
2021/07/17 04:51:02;;;;;;;11.50;3.72;;;15.90;99.90;;;;;;4893205;29;20036;-84
2021/07/17 04:53:28;;;;;;;19.80;4.93;;;16.00;99.90;;;;;;4892760;29;20037;-82
2021/07/17 04:55:53;;;;;;;12.88;4.82;;;16.00;99.90;;;;;;4893110;29;20043;-83
2021/07/17 04:58:19;;;;;;;24.98;6.13;;;16.10;99.90;;;;;;4892976;29;20036;-83
2021/07/17 05:00:45;;;;;;;17.75;5.07;;;16.00;99.90;;;;;;4893039;29;20033;-83
2021/07/17 05:03:37;;;;;;;20.80;5.93;;;16.00;99.90;;;;;;4892762;29;20037;-83
2021/07/17 05:06:03;;;;;;;15.82;5.00;;;16.00;99.90;;;;;;4908251;29;20036;-83
2021/07/17 05:08:29;;;;;;;15.13;4.55;;;16.00;99.90;;;;;;4908519;29;20313;-83
2021/07/17 05:10:54;;;;;;;12.63;4.95;;;16.00;99.90;;;;;;4892605;29;20041;-83
2021/07/17 05:13:20;;;;;;;12.35;3.28;;;16.00;99.90;;;;;;4893030;29;20028;-83
2021/07/17 05:15:46;;;;;;;16.25;4.30;;;16.20;99.90;;;;;;4918909;29;20043;-84
2021/07/17 05:18:12;;;;;;;15.60;4.70;;;16.20;99.90;;;;;;4927302;29;20036;-83
2021/07/17 05:20:41;;;;;;;20.13;4.82;;;16.20;99.90;;;;;;4927381;29;20129;-84
2021/07/17 05:23:06;;;;;;;22.77;6.10;;;16.30;99.90;;;;;;4927339;29;20035;-83
2021/07/17 05:25:32;;;;;;;19.40;5.57;;;16.20;99.90;;;;;;4911423;29;20032;-83
2021/07/17 05:27:58;;;;;;;13.70;4.13;;;16.30;99.90;;;;;;4926979;29;20064;-83
2021/07/17 05:30:24;;;;;;;20.63;7.20;;;16.30;99.90;;;;;;4927314;29;20044;-84
2021/07/17 05:32:49;;;;;;;27.70;7.43;;;16.30;99.90;;;;;;4927191;29;20028;-83
2021/07/17 05:35:15;;;;;;;21.10;6.57;;;16.30;99.90;;;;;;4927148;29;20601;-83
2021/07/17 05:37:41;;;;;;;16.70;6.10;;;16.30;99.90;;;;;;4927138;29;20040;-83
2021/07/17 05:40:08;;;;;;;19.90;6.15;;;16.50;99.90;;;;;;4927050;29;20035;-83
2021/07/17 05:42:34;;;;;;;18.20;5.40;;;16.40;99.90;;;;;;4926890;29;20028;-84
2021/07/17 05:44:59;;;;;;;11.40;4.07;;;16.40;99.90;;;;;;4927014;29;20063;-83
2021/07/17 05:47:26;;;;;;;17.70;7.40;;;16.40;99.90;;;;;;4921163;29;20116;-83
2021/07/17 05:49:52;;;;;;;17.77;5.93;;;16.30;99.90;;;;;;4927096;29;20171;-83
2021/07/17 05:52:18;;;;;;;13.82;4.55;;;16.30;99.90;;;;;;4919989;29;20033;-83
2021/07/17 05:54:43;;;;;;;14.25;5.38;;;16.40;99.90;;;;;;4877085;29;20092;-83
2021/07/17 05:57:09;;;;;;;11.93;5.10;;;16.50;99.90;;;;;;4892446;29;20092;-83
2021/07/17 05:59:36;;;;;;;14.07;4.78;;;16.40;99.90;;;;;;4908236;29;20071;-84
2021/07/17 06:02:03;;;;;;;24.27;7.47;;;16.50;99.90;;;;;;4908012;29;20032;-84
2021/07/17 06:04:28;;;;;;;17.50;7.53;;;16.50;99.90;;;;;;4907928;29;20177;-83
2021/07/17 06:06:54;;;;;;;16.77;7.03;;;16.40;99.90;;;;;;4892646;29;20073;-83
2021/07/17 06:09:20;;;;;;;16.05;7.50;;;16.40;99.90;;;;;;4908051;29;20092;-83
2021/07/17 06:11:45;;;;;;;12.05;5.32;;;16.30;99.90;;;;;;4892085;29;20069;-84
2021/07/17 06:14:11;;;;;;;20.35;7.43;;;16.50;99.90;;;;;;4892595;29;20047;-84
2021/07/17 06:16:37;;;;;;;20.13;6.82;;;16.50;99.90;;;;;;4908647;29;20028;-83
2021/07/17 06:19:02;;;;;;;15.23;6.28;;;16.50;99.90;;;;;;4930731;29;20500;-83
2021/07/17 06:21:28;;;;;;;12.82;4.18;;;16.70;99.90;;;;;;4930544;29;20040;-84
2021/07/17 06:23:53;;;;;;;17.80;7.03;;;16.80;99.90;;;;;;4930716;29;20071;-85
2021/07/17 06:26:19;;;;;;;19.02;7.00;;;16.70;99.90;;;;;;4930575;29;20047;-85
2021/07/17 06:28:44;;;;;;;21.17;7.57;;;16.80;99.90;;;;;;4930764;29;20050;-85
2021/07/17 06:31:10;;;;;;;15.40;6.97;;;16.90;99.90;;;;;;4930500;29;20114;-85
2021/07/17 06:33:36;;;;;;;15.57;5.55;;;16.80;99.90;;;;;;4930757;29;20046;-85
2021/07/17 06:36:02;;;;;;;29.60;9.38;;;17.00;99.90;;;;;;4930424;29;20036;-86
2021/07/17 06:38:27;;;;;;;17.75;6.55;;;17.00;99.90;;;;;;4930582;29;20028;-85
2021/07/17 06:40:53;;;;;;;18.27;6.45;;;17.10;99.90;;;;;;4930232;29;20048;-84
2021/07/17 06:43:19;;;;;;;17.75;6.28;;;17.10;99.90;;;;;;4929528;29;20032;-85
2021/07/17 06:45:44;;;;;;;19.60;5.97;;;17.10;99.90;;;;;;4930491;29;20047;-83
2021/07/17 06:48:11;;;;;;;14.75;6.18;;;17.30;99.90;;;;;;4930245;29;20058;-82
2021/07/17 06:50:37;;;;;;;16.65;6.53;;;17.40;99.90;;;;;;4914889;29;20032;-84
2021/07/17 06:53:03;;;;;;;16.73;6.72;;;17.40;99.90;;;;;;4901821;29;20033;-86
2021/07/17 06:55:30;;;;;;;25.20;7.25;;;17.40;99.90;;;;;;4880151;29;20040;-84
2021/07/17 06:57:57;;;;;;;16.02;5.15;;;17.50;99.90;;;;;;4896093;29;20037;-83
2021/07/17 07:00:23;;;;;;;15.68;5.88;;;17.80;99.90;;;;;;4912735;29;20033;-85
2021/07/17 07:02:49;;;;;;;18.88;6.10;;;17.80;99.90;;;;;;4895766;29;20032;-84
2021/07/17 07:05:15;;;;;;;12.45;5.53;;;18.10;99.90;;;;;;4912559;29;20036;-84
2021/07/17 07:07:41;;;;;;;10.75;4.30;;;18.40;99.90;;;;;;4895832;29;20389;-86
2021/07/17 07:10:08;;;;;;;15.27;4.32;;;18.60;99.90;;;;;;4912357;29;20043;-84
2021/07/17 07:12:38;;;;;;;12.32;4.93;;;18.60;99.90;;;;;;4912607;29;20039;-85
2021/07/17 07:15:09;;;;;;;15.85;4.95;;;18.10;99.90;;;;;;4912574;29;20065;-85
2021/07/17 07:17:35;;;;;;;12.35;4.18;;;18.20;99.90;;;;;;4880126;29;20033;-85
2021/07/17 07:20:02;;;;;;;15.88;4.55;;;18.50;99.90;;;;;;4880380;29;20043;-85
2021/07/17 07:22:28;;;;;;;17.40;5.47;;;18.50;99.90;;;;;;4879940;29;20041;-87
2021/07/17 07:24:53;;;;;;;9.13;3.60;;;18.60;99.90;;;;;;4895596;29;20063;-86
2021/07/17 07:27:19;;;;;;;9.35;2.97;;;19.00;99.90;;;;;;4895502;29;20028;-86
2021/07/17 07:29:45;;;;;;;13.32;3.92;;;19.00;99.90;;;;;;4911203;29;20044;-84
2021/07/17 07:32:10;;;;;;;11.27;2.92;;;19.50;99.90;;;;;;4910629;29;20119;-86
2021/07/17 07:34:36;;;;;;;14.77;4.20;;;19.80;99.90;;;;;;4879370;29;20040;-87
2021/07/17 07:37:02;;;;;;;13.00;3.15;;;19.60;99.90;;;;;;4912013;29;20043;-87
2021/07/17 07:39:28;;;;;;;11.55;3.30;;;19.10;99.90;;;;;;4912002;29;20056;-86
2021/07/17 07:41:54;;;;;;;8.27;3.03;;;18.80;99.90;;;;;;4894281;29;20116;-87
2021/07/17 07:44:20;;;;;;;8.52;3.00;;;19.10;99.90;;;;;;4894217;29;20075;-86
2021/07/17 07:46:46;;;;;;;8.35;1.92;;;19.60;99.90;;;;;;4905020;23;20025;-85
2021/07/17 07:49:12;;;;;;;8.63;2.15;;;19.80;99.90;;;;;;4932488;29;20047;-86
2021/07/17 07:51:38;;;;;;;7.20;2.03;;;20.00;99.90;;;;;;4916742;29;20036;-84
2021/07/17 07:54:04;;;;;;;10.07;2.42;;;19.90;99.90;;;;;;4948585;29;20095;-85
2021/07/17 07:56:29;;;;;;;7.07;1.70;;;19.90;99.90;;;;;;4948579;29;20044;-87
2021/07/17 07:58:55;;;;;;;5.90;1.73;;;20.40;99.90;;;;;;4948470;29;20036;-85
2021/07/17 08:01:20;;;;;;;7.32;1.67;;;20.50;99.90;;;;;;4948459;29;20122;-86
2021/07/17 08:03:46;;;;;;;8.95;1.38;;;20.50;99.90;;;;;;4948486;29;20071;-86
2021/07/17 08:06:12;;;;;;;5.00;1.77;;;20.50;99.90;;;;;;4948443;29;20119;-85
2021/07/17 08:08:37;;;;;;;5.47;1.33;;;20.60;99.90;;;;;;4932175;29;20051;-85
2021/07/17 08:11:03;;;;;;;7.00;1.35;;;20.50;99.90;;;;;;4948026;29;20111;-86
2021/07/17 08:13:28;;;;;;;4.43;1.10;;;20.40;99.90;;;;;;4948316;29;20024;-86
2021/07/17 08:15:57;;;;;;;6.05;1.40;;;21.10;99.90;;;;;;4942738;29;20046;-85
2021/07/17 08:18:23;;;;;;;6.85;1.50;;;20.90;99.90;;;;;;4951144;29;20051;-85
2021/07/17 08:20:52;;;;;;;7.22;1.30;;;20.80;99.90;;;;;;4935656;29;20035;-84
2021/07/17 08:23:18;;;;;;;5.63;1.10;;;20.70;99.90;;;;;;4950654;29;20460;-85
2021/07/17 08:25:43;;;;;;;6.15;1.27;;;21.40;99.90;;;;;;4951109;29;20031;-85
2021/07/17 08:28:09;;;;;;;3.95;0.70;;;21.00;99.90;;;;;;4951009;29;20039;-87
2021/07/17 08:30:37;;;;;;;4.25;0.80;;;21.40;99.90;;;;;;4950883;29;20042;-88
2021/07/17 08:33:04;;;;;;;3.90;0.80;;;21.60;99.90;;;;;;4950747;29;20042;-85
2021/07/17 08:35:31;;;;;;;6.82;1.05;;;21.60;99.90;;;;;;4935073;29;20039;-84
2021/07/17 08:37:56;;;;;;;4.07;0.60;;;21.40;99.90;;;;;;4950438;29;20027;-86
2021/07/17 08:40:24;;;;;;;4.63;1.23;;;21.80;99.90;;;;;;4950303;29;20178;-85
2021/07/17 08:42:52;;;;;;;3.92;0.82;;;21.50;99.90;;;;;;4950415;29;20023;-85
2021/07/17 08:48:09;;;;;;;5.70;0.65;;;22.00;99.90;;;;;;4888996;29;20353;-86
2021/07/17 08:50:34;;;;;;;5.55;0.80;;;21.60;99.90;;;;;;4858454;29;20073;-86
2021/07/17 08:53:00;;;;;;;6.75;0.60;;;21.50;99.90;;;;;;4845950;29;20045;-85
2021/07/17 08:55:27;;;;;;;4.90;0.70;;;21.40;99.90;;;;;;4886549;29;20051;-89
2021/07/17 08:57:54;;;;;;;5.60;0.60;;;21.40;99.90;;;;;;4886179;29;20064;-90
2021/07/17 09:00:27;;;;;;;5.65;0.68;;;21.80;99.90;;;;;;4870194;29;20042;-85
2021/07/17 09:02:58;;;;;;;4.30;0.50;;;21.80;99.90;;;;;;4867765;29;20033;-87
2021/07/17 09:05:26;;;;;;;2.67;0.50;;;22.00;99.90;;;;;;4870067;29;20127;-87
2021/07/17 09:07:53;;;;;;;5.45;0.47;;;22.10;99.90;;;;;;4869681;29;20029;-86
2021/07/17 09:10:37;;;;;;;4.40;0.50;;;22.70;99.90;;;;;;4871808;29;20089;-86
2021/07/17 09:13:11;;;;;;;4.38;0.70;;;22.60;99.90;;;;;;4849465;29;20038;-86
2021/07/17 09:15:41;;;;;;;4.78;0.50;;;22.50;99.90;;;;;;4864552;29;20203;-86
2021/07/17 09:18:07;;;;;;;;;;;23.00;99.90;;;;;;4879589;29;20081;-84
2021/07/17 09:20:34;;;;;;;3.97;0.50;;;23.40;99.90;;;;;;4850062;29;19991;-88
2021/07/17 09:23:01;;;;;;;2.17;0.50;;;23.20;99.90;;;;;;4876870;29;20037;-87
2021/07/17 09:25:39;;;;;;;3.38;0.45;;;23.30;99.90;;;;;;4885392;29;20047;-87
2021/07/17 09:28:24;;;;;;;4.03;0.65;;;23.60;99.90;;;;;;4930231;29;20032;-87
2021/07/17 09:30:51;;;;;;;4.05;0.50;;;22.90;99.90;;;;;;4946812;29;20039;-87
2021/07/17 09:33:18;;;;;;;4.05;0.55;;;23.30;99.90;;;;;;4930835;29;20039;-87
2021/07/17 09:35:49;;;;;;;2.63;0.40;;;23.80;99.90;;;;;;4930732;29;20404;-86
2021/07/17 09:38:17;;;;;;;3.40;0.52;;;23.30;99.90;;;;;;4930810;29;20102;-85
2021/07/17 09:40:54;;;;;;;5.22;0.40;;;23.20;99.90;;;;;;4914698;29;20046;-86
2021/07/17 09:43:26;;;;;;;4.82;0.70;;;23.40;99.90;;;;;;4930865;29;20023;-85
2021/07/17 09:46:15;;;;;;;3.78;0.60;;;23.30;99.90;;;;;;4930356;29;20040;-85
2021/07/17 09:48:47;;;;;;;3.35;0.80;;;23.30;99.90;;;;;;4872945;29;20104;-87
2021/07/17 09:51:19;;;;;;;4.80;0.98;;;23.60;99.90;;;;;;4873243;29;20128;-86
2021/07/17 09:53:46;;;;;;;3.80;0.60;;;22.90;99.90;;;;;;4895240;29;20101;-88
2021/07/17 09:56:22;;;;;;;2.00;0.50;;;23.10;99.90;;;;;;4911285;29;20036;-87
2021/07/17 09:58:47;;;;;;;3.08;0.50;;;23.10;99.90;;;;;;4911467;29;20100;-87
2021/07/17 10:01:14;;;;;;;3.08;0.65;;;23.30;99.90;;;;;;4911018;29;20047;-85
2021/07/17 10:03:39;;;;;;;2.28;0.47;;;23.40;99.90;;;;;;4895381;29;20199;-87
2021/07/17 10:06:08;;;;;;;2.85;0.40;;;23.60;99.90;;;;;;4911101;29;20053;-87
2021/07/17 10:08:36;;;;;;;3.53;0.50;;;24.40;99.90;;;;;;4911078;29;20029;-86
2021/07/17 10:11:11;;;;;;;3.47;0.60;;;23.70;99.90;;;;;;4895208;29;20047;-85
2021/07/17 10:13:39;;;;;;;3.65;0.40;;;23.40;99.90;;;;;;4892699;29;20070;-83
2021/07/17 10:16:21;;;;;;;4.32;0.50;;;23.30;99.90;;;;;;4862424;29;20033;-84
2021/07/17 10:18:48;;;;;;;6.53;0.50;;;23.50;99.90;;;;;;4891296;29;20045;-85
2021/07/17 10:21:14;;;;;;;5.45;0.60;;;23.10;99.90;;;;;;4891945;29;20029;-84
2021/07/17 10:23:40;;;;;;;4.82;0.40;;;22.80;99.90;;;;;;4876477;29;20048;-84
2021/07/17 10:26:07;;;;;;;4.85;0.60;;;23.30;99.90;;;;;;4906810;29;20035;-86
2021/07/17 10:28:34;;;;;;;1.40;0.30;;;23.50;99.90;;;;;;4934625;29;20035;-85
2021/07/17 10:31:01;;;;;;;4.38;0.50;;;24.00;99.90;;;;;;4934470;29;20499;-85
2021/07/17 10:33:28;;;;;;;4.63;0.47;;;23.60;99.90;;;;;;4914958;29;20096;-85
2021/07/17 10:35:57;;;;;;;4.38;0.60;;;23.80;99.90;;;;;;4915292;29;20385;-87
2021/07/17 10:38:27;;;;;;;4.15;0.70;;;24.20;99.90;;;;;;4925243;29;20028;-87
2021/07/17 10:40:55;;;;;;;4.95;0.45;;;23.80;99.90;;;;;;4938906;29;20036;-85
2021/07/17 10:43:22;;;;;;;4.43;0.77;;;23.90;99.90;;;;;;4938173;29;20035;-86
2021/07/17 10:46:28;;;;;;;2.50;0.60;;;24.00;99.90;;;;;;4933979;29;20094;-85
2021/07/17 10:48:55;;;;;;;4.53;0.65;;;24.60;99.90;;;;;;4884482;29;20844;-86
2021/07/17 10:51:23;;;;;;;2.78;0.45;;;24.00;99.90;;;;;;4876743;29;20048;-86
2021/07/17 10:53:54;;;;;;;3.58;0.40;;;24.80;99.90;;;;;;4875575;29;20048;-86
2021/07/17 10:56:28;;;;;;;2.97;0.40;;;24.90;99.90;;;;;;4875728;29;20423;-86
2021/07/17 10:59:07;;;;;;;1.55;0.30;;;25.40;99.90;;;;;;4875446;29;20517;-87
2021/07/17 11:01:58;;;;;;;1.63;0.30;;;25.40;99.90;;;;;;4878342;29;20033;-88
2021/07/17 11:04:34;;;;;;;4.65;0.40;;;25.30;99.90;;;;;;4875698;29;20044;-87
2021/07/17 11:07:17;;;;;;;1.58;0.40;;;24.90;99.90;;;;;;4881370;29;20050;-87
2021/07/17 11:09:57;;;;;;;5.03;0.60;;;24.70;99.90;;;;;;4879704;29;20077;-87
2021/07/17 11:12:34;;;;;;;4.18;0.30;;;24.80;99.90;;;;;;4888904;29;20124;-88
2021/07/17 11:15:08;;;;;;;2.20;0.50;;;24.90;99.90;;;;;;4886746;29;20040;-88
2021/07/17 11:17:44;;;;;;;2.05;0.28;;;25.10;99.90;;;;;;4874949;29;20037;-88
2021/07/17 11:20:17;;;;;;;2.90;0.40;;;25.10;99.90;;;;;;4884981;29;20079;-87
2021/07/17 11:22:44;;;;;;;3.42;0.40;;;24.70;99.90;;;;;;4876645;29;20080;-86
2021/07/17 11:25:14;;;;;;;2.50;0.30;;;24.20;99.90;;;;;;4889960;29;20519;-88
2021/07/17 11:27:40;;;;;;;;;;;24.80;99.90;;;;;;4918198;29;20042;-86
2021/07/17 11:30:14;;;;;;;3.78;0.40;;;24.70;99.90;;;;;;4949125;29;19934;-86
2021/07/17 11:33:03;;;;;;;1.48;0.20;;;24.50;99.90;;;;;;4938267;29;20085;-88
2021/07/17 11:35:28;;;;;;;5.95;0.30;;;24.90;99.90;;;;;;4919575;29;20057;-88
2021/07/17 11:37:55;;;;;;;2.53;0.30;;;24.80;99.90;;;;;;4923024;29;20043;-87
2021/07/17 11:40:21;;;;;;;2.13;0.30;;;24.70;99.90;;;;;;4925305;29;20027;-86
2021/07/17 11:42:47;;;;;;;2.78;0.20;;;25.30;99.90;;;;;;4936050;29;20031;-87
2021/07/17 11:45:13;;;;;;;3.03;0.47;;;24.90;99.90;;;;;;4942489;29;20077;-87
2021/07/17 11:47:40;;;;;;;3.20;0.30;;;24.90;99.90;;;;;;4930852;23;20056;-88
2021/07/17 11:50:06;;;;;;;2.95;0.30;;;24.80;99.90;;;;;;4912817;29;20604;-88
2021/07/17 11:52:34;;;;;;;2.45;0.30;;;25.00;99.90;;;;;;4914814;29;20145;-87
2021/07/17 11:55:01;;;;;;;2.83;0.30;;;25.00;99.90;;;;;;4912610;29;20047;-87
2021/07/17 11:57:32;;;;;;;3.05;0.40;;;25.20;99.90;;;;;;4910280;29;20088;-87
2021/07/17 12:00:17;;;;;;;2.58;0.40;;;25.20;99.90;;;;;;4926277;29;20043;-88
2021/07/17 12:02:44;;;;;;;1.23;0.20;;;25.10;99.90;;;;;;4907696;29;20064;-86
2021/07/17 12:05:15;;;;;;;2.47;0.30;;;25.50;99.90;;;;;;4912227;29;20044;-88
2021/07/17 12:07:43;;;;;;;2.88;0.30;;;25.30;99.90;;;;;;4926512;29;20035;-85
2021/07/17 12:10:10;;;;;;;4.03;0.30;;;24.60;99.90;;;;;;4930571;29;20465;-87
2021/07/17 12:12:44;;;;;;;0.90;0.30;;;24.70;99.90;;;;;;4913704;29;20039;-86
2021/07/17 12:15:41;;;;;;;2.53;0.40;;;24.90;99.90;;;;;;4907512;29;20052;-87
2021/07/17 12:18:18;;;;;;;1.40;0.30;;;24.90;99.90;;;;;;4879992;29;20088;-85
2021/07/17 12:20:47;;;;;;;3.75;0.30;;;25.00;99.90;;;;;;4894516;29;20040;-85
2021/07/17 12:23:24;;;;;;;3.83;0.30;;;25.30;99.90;;;;;;4911442;29;20137;-84
2021/07/17 12:25:52;;;;;;;1.13;0.30;;;25.30;99.90;;;;;;4878944;29;20313;-88
2021/07/17 12:28:29;;;;;;;1.30;0.30;;;25.60;99.90;;;;;;4894995;29;20028;-87
2021/07/17 12:31:07;;;;;;;3.13;0.40;;;25.80;99.90;;;;;;4901511;29;20128;-86
2021/07/17 12:33:35;;;;;;;2.95;0.77;;;25.40;99.90;;;;;;4902476;29;20039;-85
2021/07/17 12:36:06;;;;;;;1.98;0.30;;;25.60;99.90;;;;;;4901418;29;20058;-85
2021/07/17 12:38:55;;;;;;;1.90;0.32;;;25.30;99.90;;;;;;4907791;29;20079;-85
2021/07/17 12:41:22;;;;;;;2.65;0.32;;;25.50;99.90;;;;;;4889174;29;20028;-86
2021/07/17 12:43:49;;;;;;;2.50;0.30;;;25.50;99.90;;;;;;4921509;29;20211;-85
2021/07/17 12:46:21;;;;;;;1.73;0.30;;;25.50;99.90;;;;;;4913943;29;20036;-87
2021/07/17 12:48:56;;;;;;;2.35;0.25;;;25.40;99.90;;;;;;4921733;29;20055;-85
2021/07/17 12:51:31;;;;;;;1.52;0.20;;;25.60;99.90;;;;;;4940048;29;20020;-86